createdAt,value
2022-11-10T00:01:09.341Z,26.30
2022-11-10T00:06:20.975Z,26.33
2022-11-10T00:11:34.514Z,25.73
2022-11-10T00:17:05.556Z,22.75
2022-11-10T00:22:17.428Z,24.20
2022-11-10T00:27:30.905Z,23.02
2022-11-10T00:32:42.877Z,21.98
2022-11-10T00:38:00.403Z,21.50
2022-11-10T00:43:13.780Z,22.30
2022-11-10T00:48:26.826Z,22.20
2022-11-10T00:53:39.623Z,22.65
2022-11-10T00:58:52.816Z,22.60
2022-11-10T01:04:05.478Z,25.98
2022-11-10T01:09:20.071Z,30.35
2022-11-10T01:14:33.543Z,29.35
2022-11-10T01:19:45.389Z,27.52
2022-11-10T01:24:56.924Z,25.67
2022-11-10T01:30:11.563Z,26.40
2022-11-10T01:35:24.550Z,26.83
2022-11-10T01:40:38.510Z,26.05
2022-11-10T01:45:53.710Z,24.50
2022-11-10T01:51:13.352Z,24.52
2022-11-10T01:56:27.062Z,23.90
2022-11-10T02:01:40.816Z,24.17
2022-11-10T02:06:53.518Z,22.17
2022-11-10T02:12:06.816Z,21.17
2022-11-10T02:17:20.192Z,23.38
2022-11-10T02:22:33.445Z,19.85
2022-11-10T02:27:45.276Z,21.00
2022-11-10T02:32:57.240Z,20.05
2022-11-10T02:38:11.029Z,17.70
2022-11-10T02:43:23.402Z,17.13
2022-11-10T02:48:35.286Z,18.25
2022-11-10T02:53:50.233Z,18.50
2022-11-10T02:59:02.357Z,18.73
2022-11-10T03:04:14.485Z,19.30
2022-11-10T03:09:27.898Z,18.23
2022-11-10T03:14:39.965Z,18.98
2022-11-10T03:19:51.594Z,18.73
2022-11-10T03:25:05.804Z,21.55
2022-11-10T03:30:17.700Z,19.17
2022-11-10T03:35:29.835Z,18.15
2022-11-10T03:41:17.100Z,18.58
2022-11-10T03:46:18.172Z,20.58
2022-11-10T03:51:30.065Z,20.75
2022-11-10T03:56:43.595Z,20.30
2022-11-10T04:01:55.226Z,24.33
2022-11-10T04:07:24.091Z,23.00
2022-11-10T04:12:54.392Z,21.38
2022-11-10T04:18:19.988Z,20.80
2022-11-10T04:23:36.274Z,20.52
2022-11-10T04:28:51.350Z,18.70
2022-11-10T04:34:03.184Z,18.98
2022-11-10T04:39:15.016Z,17.47
2022-11-10T04:44:28.197Z,17.67
2022-11-10T04:49:39.760Z,18.80
2022-11-10T04:54:51.636Z,17.55
2022-11-10T05:00:07.536Z,18.47
2022-11-10T05:05:19.709Z,19.83
2022-11-10T05:10:31.666Z,19.83
2022-11-10T05:15:44.873Z,18.17
2022-11-10T05:21:04.823Z,21.30
2022-11-10T05:26:22.403Z,17.73
2022-11-10T05:31:36.310Z,18.23
2022-11-10T05:36:48.352Z,18.17
2022-11-10T05:42:03.416Z,19.75
2022-11-10T05:47:17.583Z,21.20
2022-11-10T05:52:29.592Z,20.25
2022-11-10T05:57:44.295Z,21.53
2022-11-10T06:03:07.690Z,18.90
2022-11-10T06:08:19.504Z,19.13
2022-11-10T06:13:31.142Z,18.52
2022-11-10T06:18:44.061Z,19.83
2022-11-10T06:23:56.127Z,19.77
2022-11-10T06:29:08.152Z,19.77
2022-11-10T06:34:21.745Z,21.67
2022-11-10T06:39:33.658Z,19.52
2022-11-10T06:44:45.530Z,22.65
2022-11-10T06:49:58.632Z,18.63
2022-11-10T06:55:11.138Z,19.40
2022-11-10T07:00:23.422Z,21.55
2022-11-10T07:05:38.212Z,20.83
2022-11-10T07:10:53.529Z,22.90
2022-11-10T07:16:05.884Z,23.95
2022-11-10T07:21:19.104Z,23.00
2022-11-10T07:26:30.647Z,27.42
2022-11-10T07:31:42.352Z,26.35
2022-11-10T07:36:55.549Z,22.52
2022-11-10T07:42:07.177Z,23.45
2022-11-10T07:47:18.615Z,21.77
2022-11-10T07:52:31.974Z,19.20
2022-11-10T07:57:43.701Z,19.88
2022-11-10T08:02:55.647Z,19.23
2022-11-10T08:08:09.193Z,19.70
2022-11-10T08:13:21.609Z,18.65
2022-11-10T08:18:35.478Z,18.80
2022-11-10T08:23:48.509Z,18.90
2022-11-10T08:29:00.338Z,20.25
2022-11-10T08:34:13.008Z,18.58
2022-11-10T08:39:38.642Z,19.45
2022-11-10T08:44:51.061Z,18.38
2022-11-10T08:50:02.338Z,18.15
2022-11-10T08:55:15.069Z,18.58
2022-11-10T09:00:26.746Z,18.60
2022-11-10T09:05:38.323Z,18.45
2022-11-10T09:10:52.280Z,18.08
2022-11-10T09:16:04.524Z,17.05
2022-11-10T09:21:16.217Z,17.60
2022-11-10T09:26:29.179Z,17.92
2022-11-10T09:31:40.912Z,15.95
2022-11-10T09:36:53.388Z,17.05
2022-11-10T09:42:08.239Z,15.43
2022-11-10T09:47:55.622Z,14.77
2022-11-10T09:53:01.584Z,16.02
2022-11-10T09:58:16.418Z,15.20
2022-11-10T10:03:32.460Z,14.60
2022-11-10T10:08:56.909Z,15.75
2022-11-10T10:14:19.536Z,15.40
2022-11-10T10:19:42.075Z,15.85
2022-11-10T10:24:58.097Z,14.77
2022-11-10T10:30:16.743Z,15.70
2022-11-10T10:35:29.609Z,14.55
2022-11-10T10:40:44.436Z,15.35
2022-11-10T10:46:16.940Z,16.08
2022-11-10T10:51:30.793Z,15.43
2022-11-10T10:56:42.765Z,16.13
2022-11-10T11:01:56.862Z,16.92
2022-11-10T11:07:22.580Z,16.80
2022-11-10T11:12:34.903Z,16.73
2022-11-10T11:17:55.508Z,16.40
2022-11-10T11:23:24.990Z,16.15
2022-11-10T11:28:44.196Z,16.05
2022-11-10T11:34:05.884Z,17.55
2022-11-10T11:39:28.357Z,17.75
2022-11-10T11:44:52.040Z,16.27
2022-11-10T11:50:17.728Z,17.95
2022-11-10T11:55:55.087Z,18.33
2022-11-10T12:01:24.843Z,19.95
2022-11-10T12:06:49.573Z,17.90
2022-11-10T12:12:25.412Z,18.05
2022-11-10T12:17:48.939Z,17.52
2022-11-10T12:23:09.953Z,18.73
2022-11-10T12:28:27.339Z,17.02
2022-11-10T12:33:43.981Z,17.35
2022-11-10T12:39:04.757Z,18.05
2022-11-10T12:49:58.996Z,17.70
2022-11-10T12:55:15.878Z,18.05
2022-11-10T13:00:30.240Z,16.20
2022-11-10T13:05:45.389Z,16.40
2022-11-10T13:11:03.946Z,15.35
2022-11-10T13:16:49.659Z,14.90
2022-11-10T13:22:10.067Z,16.17
2022-11-10T13:27:53.681Z,16.08
2022-11-10T13:33:39.638Z,15.80
2022-11-10T13:38:51.294Z,15.07
2022-11-10T13:44:04.861Z,14.82
2022-11-10T13:49:40.332Z,13.98
2022-11-10T13:55:16.316Z,15.65
2022-11-10T14:00:31.907Z,14.30
2022-11-10T14:06:06.401Z,16.45
2022-11-10T14:11:26.769Z,15.48
2022-11-10T14:16:44.869Z,15.90
2022-11-10T14:22:04.352Z,16.00
2022-11-10T14:27:22.443Z,16.95
2022-11-10T14:32:35.353Z,16.50
2022-11-10T14:37:49.610Z,18.00
2022-11-10T14:43:01.378Z,17.13
2022-11-10T14:48:20.303Z,17.45
2022-11-10T14:53:35.596Z,20.55
2022-11-10T14:58:49.128Z,20.75
2022-11-10T15:04:05.057Z,18.17
2022-11-10T15:09:22.667Z,21.48
2022-11-10T15:14:40.738Z,20.50
2022-11-10T15:19:56.973Z,21.70
2022-11-10T15:25:16.290Z,25.73
2022-11-10T15:30:28.201Z,27.25
2022-11-10T15:35:41.255Z,30.17
2022-11-10T15:40:54.761Z,32.70
2022-11-10T15:46:17.757Z,32.08
2022-11-10T15:51:33.078Z,37.30
2022-11-10T15:56:45.069Z,37.42
2022-11-10T16:01:57.048Z,39.67
2022-11-10T16:07:10.988Z,41.55
2022-11-10T16:12:24.445Z,45.15
2022-11-10T16:17:36.636Z,44.05
2022-11-10T16:22:51.291Z,43.90
2022-11-10T16:28:08.397Z,44.95
2022-11-10T16:33:21.892Z,48.72
2022-11-10T16:38:35.205Z,52.08
2022-11-10T16:43:46.828Z,52.40
2022-11-10T16:49:02.045Z,53.38
2022-11-10T16:54:15.471Z,51.60
2022-11-10T16:59:27.034Z,52.63
2022-11-10T17:04:38.710Z,52.58
2022-11-10T17:09:51.908Z,52.45
2022-11-10T17:15:03.849Z,50.90
2022-11-10T17:20:20.921Z,50.17
2022-11-10T17:25:36.740Z,48.22
2022-11-10T17:30:48.759Z,45.78
2022-11-10T17:36:02.413Z,46.58
2022-11-10T17:41:18.008Z,51.58
2022-11-10T17:46:29.822Z,51.33
2022-11-10T17:51:41.938Z,49.15
2022-11-10T17:56:54.994Z,51.75
2022-11-10T18:02:07.876Z,58.65
2022-11-10T18:07:22.226Z,67.18
2022-11-10T18:12:35.645Z,72.47
2022-11-10T18:17:47.432Z,107.47
2022-11-10T18:23:00.756Z,115.55
2022-11-10T18:28:25.367Z,101.15
2022-11-10T18:33:38.286Z,67.53
2022-11-10T18:38:52.104Z,58.05
2022-11-10T18:44:14.629Z,51.22
2022-11-10T18:49:26.860Z,51.58
2022-11-10T18:54:38.618Z,47.85
2022-11-10T18:59:54.012Z,46.97
2022-11-10T19:05:06.463Z,47.10
2022-11-10T19:10:20.520Z,48.72
2022-11-10T19:15:41.602Z,45.75
2022-11-10T19:26:07.805Z,44.38
2022-11-10T19:31:24.763Z,36.75
2022-11-10T19:36:37.018Z,36.40
2022-11-10T19:41:48.897Z,36.03
2022-11-10T19:47:02.447Z,35.95
2022-11-10T19:52:18.050Z,34.47
2022-11-10T19:57:30.056Z,34.22
2022-11-10T20:02:45.736Z,34.03
2022-11-10T20:08:12.852Z,33.13
2022-11-10T20:13:24.965Z,36.78
2022-11-10T20:18:40.704Z,35.70
2022-11-10T20:23:56.361Z,53.33
2022-11-10T20:29:08.458Z,41.67
2022-11-10T20:34:21.559Z,37.25
2022-11-10T20:39:33.130Z,28.73
2022-11-10T20:44:45.221Z,29.08
2022-11-10T20:49:58.214Z,29.55
2022-11-10T20:55:10.091Z,30.00
2022-11-10T21:00:22.297Z,30.67
2022-11-10T21:05:35.498Z,31.30
2022-11-10T21:10:51.938Z,31.52
2022-11-10T21:16:06.225Z,31.98
2022-11-10T21:21:34.116Z,33.90
2022-11-10T21:26:46.237Z,34.75
2022-11-10T21:31:58.348Z,33.28
2022-11-10T21:37:11.800Z,31.60
2022-11-10T21:42:23.961Z,32.90
2022-11-10T21:47:39.122Z,39.63
2022-11-10T21:52:56.802Z,39.38
2022-11-10T21:58:22.902Z,34.20
2022-11-10T22:03:36.196Z,35.05
2022-11-10T22:08:52.745Z,33.15
2022-11-10T22:14:29.628Z,28.73
2022-11-10T22:19:41.820Z,30.85
2022-11-10T22:24:55.355Z,27.27
2022-11-10T22:30:07.910Z,28.02
2022-11-10T22:35:33.133Z,29.30
2022-11-10T22:41:03.726Z,28.67
2022-11-10T22:46:15.746Z,28.70
2022-11-10T22:51:30.830Z,31.30
2022-11-10T22:56:44.813Z,29.25
2022-11-10T23:01:57.821Z,27.10
2022-11-10T23:07:23.417Z,27.52
2022-11-10T23:12:36.353Z,28.60
2022-11-10T23:17:48.112Z,30.10
2022-11-10T23:23:01.612Z,29.48
2022-11-10T23:28:15.064Z,29.55
2022-11-10T23:33:32.252Z,27.83
2022-11-10T23:38:45.698Z,29.23
2022-11-10T23:43:59.825Z,30.60
2022-11-10T23:49:12.027Z,30.35
2022-11-10T23:54:24.107Z,29.10
2022-11-10T23:59:39.715Z,32.10
